Time;durP1;ratioP1;P1;durP2;ratioP2;P2;SDS_P1;SDS_P2;PMS_P1;PMS_P2;Temp;Humidity;BMP_temperature;BMP_pressure;BME280_temperature;BME280_humidity;BME280_pressure;Samples;Min_cycle;Max_cycle;Signal;HPM_P1;HPM_P2
2021/01/12 00:00:11;;;;;;;2.90;1.00;;;6.90;99.90;;;;;;4941303;29;20114;-92
2021/01/12 00:02:36;;;;;;;2.03;1.42;;;7.00;99.90;;;;;;4940823;29;20230;-91
2021/01/12 00:05:03;;;;;;;2.67;1.80;;;7.00;99.90;;;;;;4941335;29;20187;-91
2021/01/12 00:07:29;;;;;;;1.60;1.00;;;7.00;99.90;;;;;;4941036;29;20039;-92
2021/01/12 00:09:55;;;;;;;1.73;1.10;;;6.90;99.90;;;;;;4941005;29;20027;-93
2021/01/12 00:12:20;;;;;;;1.13;0.90;;;6.90;99.90;;;;;;4952645;29;20027;-92
2021/01/12 00:14:47;;;;;;;1.02;0.57;;;6.90;99.90;;;;;;4940397;29;20462;-92
2021/01/12 00:17:13;;;;;;;0.60;0.40;;;6.90;99.90;;;;;;4940534;29;20059;-94
2021/01/12 00:19:39;;;;;;;4.43;1.30;;;6.90;99.90;;;;;;4944280;28;20023;-93
2021/01/12 00:22:08;;;;;;;3.22;0.93;;;6.90;99.90;;;;;;4958840;28;20046;-92
2021/01/12 00:24:36;;;;;;;2.53;1.25;;;6.90;99.90;;;;;;4959472;28;20412;-93
2021/01/12 00:27:03;;;;;;;1.40;0.80;;;6.90;99.90;;;;;;4960020;28;20031;-93
2021/01/12 00:29:31;;;;;;;1.95;0.60;;;6.90;99.90;;;;;;4960575;28;20046;-93
2021/01/12 00:31:57;;;;;;;2.47;0.60;;;6.90;99.90;;;;;;4970799;28;20034;-94
2021/01/12 00:34:22;;;;;;;5.47;2.35;;;6.90;99.90;;;;;;4982596;28;20050;-93
2021/01/12 00:36:51;;;;;;;3.35;1.63;;;6.90;99.90;;;;;;4983425;28;20019;-93
2021/01/12 00:39:18;;;;;;;2.60;1.40;;;6.90;99.90;;;;;;4983359;28;20019;-92
2021/01/12 00:41:55;;;;;;;1.77;1.00;;;6.90;99.90;;;;;;4977448;28;20034;-94
2021/01/12 00:44:22;;;;;;;2.67;1.30;;;6.90;99.90;;;;;;4965407;28;20053;-93
2021/01/12 00:46:48;;;;;;;2.05;0.40;;;6.90;99.90;;;;;;4963336;28;20027;-92
2021/01/12 00:49:17;;;;;;;4.00;1.92;;;6.90;99.90;;;;;;4962430;28;20026;-93
2021/01/12 00:51:43;;;;;;;4.00;1.70;;;6.90;99.90;;;;;;4961076;28;20385;-92
2021/01/12 00:54:13;;;;;;;2.17;1.13;;;6.90;99.90;;;;;;4960534;28;20031;-92
2021/01/12 00:56:38;;;;;;;1.13;0.80;;;6.90;99.90;;;;;;4960422;28;20030;-93
2021/01/12 00:59:04;;;;;;;0.77;0.55;;;6.90;99.90;;;;;;4960456;28;20022;-92
2021/01/12 01:01:30;;;;;;;0.63;0.40;;;6.90;99.90;;;;;;4959953;28;20042;-92
2021/01/12 01:03:56;;;;;;;1.20;0.63;;;6.90;99.90;;;;;;4975784;28;20515;-92
2021/01/12 01:06:22;;;;;;;2.88;1.98;;;6.90;99.90;;;;;;4959763;28;20090;-93
2021/01/12 01:08:48;;;;;;;2.53;1.38;;;6.90;99.90;;;;;;4960048;28;20062;-92
2021/01/12 01:11:14;;;;;;;2.70;1.15;;;6.90;99.90;;;;;;4959611;28;20101;-93
2021/01/12 01:13:40;;;;;;;1.98;1.10;;;6.90;99.90;;;;;;4959584;28;20023;-91
2021/01/12 01:16:06;;;;;;;0.20;0.20;;;6.90;99.90;;;;;;4959240;28;20122;-93
2021/01/12 01:18:32;;;;;;;0.63;0.40;;;6.90;99.90;;;;;;4959505;28;20416;-93
2021/01/12 01:20:58;;;;;;;1.63;1.08;;;6.90;99.90;;;;;;4963403;28;20094;-92
2021/01/12 01:23:24;;;;;;;1.35;0.95;;;6.90;99.90;;;;;;4966643;28;20159;-92
2021/01/12 01:25:53;;;;;;;0.68;0.60;;;6.90;99.90;;;;;;4964370;28;20047;-91
2021/01/12 01:28:23;;;;;;;3.22;0.30;;;6.90;99.90;;;;;;4962196;28;20393;-91
2021/01/12 01:30:49;;;;;;;1.95;0.68;;;6.90;99.90;;;;;;4959783;28;20023;-92
2021/01/12 01:33:15;;;;;;;2.25;1.27;;;6.90;99.90;;;;;;4961226;28;20039;-92
2021/01/12 01:35:42;;;;;;;3.50;1.80;;;6.90;99.90;;;;;;4967862;28;20098;-92
2021/01/12 01:38:08;;;;;;;11.35;4.20;;;6.80;99.90;;;;;;4967826;28;20023;-93
2021/01/12 01:40:33;;;;;;;3.80;1.60;;;6.80;99.90;;;;;;4967893;28;20039;-93
2021/01/12 01:42:59;;;;;;;1.17;0.80;;;6.80;99.90;;;;;;4981087;28;20043;-91
2021/01/12 01:45:25;;;;;;;0.95;0.20;;;6.80;99.90;;;;;;4958558;28;20117;-91
2021/01/12 01:47:51;;;;;;;0.65;0.50;;;6.80;99.90;;;;;;4968526;28;20030;-91
2021/01/12 01:50:22;;;;;;;0.50;0.35;;;6.80;99.90;;;;;;4970039;28;20027;-92
2021/01/12 01:52:53;;;;;;;0.28;0.25;;;6.70;99.90;;;;;;4977589;28;20029;-92
2021/01/12 01:55:19;;;;;;;;;;;6.80;99.90;;;;;;4964111;28;20027;-92
2021/01/12 01:57:45;;;;;;;0.60;0.32;;;6.80;99.90;;;;;;4959354;28;19910;-92
2021/01/12 02:00:11;;;;;;;2.05;1.05;;;6.80;99.90;;;;;;4959271;28;20033;-92
2021/01/12 02:02:42;;;;;;;0.85;0.52;;;6.70;99.90;;;;;;4959365;28;20099;-92
2021/01/12 02:05:10;;;;;;;;;;;6.70;99.90;;;;;;4958078;28;20019;-91
2021/01/12 02:07:41;;;;;;;2.20;1.15;;;6.70;99.90;;;;;;4961378;28;19906;-92
2021/01/12 02:10:07;;;;;;;;;;;6.70;99.90;;;;;;4971692;28;20023;-91
2021/01/12 02:12:39;;;;;;;2.28;1.15;;;6.70;99.90;;;;;;4970791;28;19906;-92
2021/01/12 02:15:07;;;;;;;1.42;1.17;;;6.70;99.90;;;;;;4969481;28;20030;-92
2021/01/12 02:17:34;;;;;;;0.60;0.60;;;6.70;99.90;;;;;;4962811;29;20311;-92
2021/01/12 02:20:00;;;;;;;0.55;0.40;;;6.70;99.90;;;;;;4946615;29;20019;-92
2021/01/12 02:22:27;;;;;;;1.05;0.85;;;6.70;99.90;;;;;;4944444;29;20397;-91
2021/01/12 02:24:55;;;;;;;1.10;1.00;;;6.70;99.90;;;;;;4946830;29;20043;-92
2021/01/12 02:27:22;;;;;;;0.50;0.50;;;6.60;99.90;;;;;;4962802;28;20214;-92
2021/01/12 02:29:49;;;;;;;0.80;0.60;;;6.70;99.90;;;;;;4947972;28;20173;-93
2021/01/12 02:32:19;;;;;;;0.50;0.50;;;6.60;99.90;;;;;;4953488;28;20034;-93
2021/01/12 02:34:46;;;;;;;0.60;0.60;;;6.70;99.90;;;;;;4945961;28;20106;-94
2021/01/12 02:37:19;;;;;;;0.80;0.63;;;6.60;99.90;;;;;;4955001;28;20274;-92
2021/01/12 02:39:59;;;;;;;0.43;0.43;;;6.60;99.90;;;;;;4961298;28;20023;-93
2021/01/12 02:42:25;;;;;;;0.75;0.60;;;6.70;99.90;;;;;;4953502;28;20035;-93
2021/01/12 02:44:50;;;;;;;0.75;0.57;;;6.70;99.90;;;;;;4946519;28;20031;-91
2021/01/12 02:47:16;;;;;;;0.70;0.70;;;6.70;99.90;;;;;;4953597;29;20449;-92
2021/01/12 02:49:43;;;;;;;0.88;0.50;;;6.70;99.90;;;;;;4944825;29;20039;-93
2021/01/12 02:52:13;;;;;;;0.85;0.50;;;6.70;99.90;;;;;;4953756;29;20131;-91
2021/01/12 02:54:41;;;;;;;3.97;1.00;;;6.70;99.90;;;;;;4957077;28;20031;-91
2021/01/12 02:57:08;;;;;;;1.85;0.50;;;6.70;99.90;;;;;;4957197;29;20535;-93
2021/01/12 02:59:34;;;;;;;0.50;0.50;;;6.60;99.90;;;;;;4956551;28;20031;-91
2021/01/12 03:02:00;;;;;;;0.90;0.50;;;6.70;99.90;;;;;;4963659;28;20130;-93
2021/01/12 03:04:25;;;;;;;1.08;0.45;;;6.70;99.90;;;;;;4945408;28;20023;-93
2021/01/12 03:06:54;;;;;;;1.42;0.50;;;6.60;99.90;;;;;;4948199;28;20026;-92
2021/01/12 03:09:20;;;;;;;0.95;0.70;;;6.60;99.90;;;;;;4945773;28;20023;-93
2021/01/12 03:11:50;;;;;;;0.75;0.50;;;6.60;99.90;;;;;;4953323;29;20027;-92
2021/01/12 03:14:16;;;;;;;0.55;0.50;;;6.60;99.90;;;;;;4948573;28;20027;-92
2021/01/12 03:16:44;;;;;;;1.73;0.60;;;6.60;99.90;;;;;;4956680;28;20049;-92
2021/01/12 03:19:11;;;;;;;0.90;0.90;;;6.60;99.90;;;;;;4960535;28;20027;-93
2021/01/12 03:21:37;;;;;;;1.67;0.60;;;6.50;99.90;;;;;;4960317;28;20041;-93
2021/01/12 03:24:03;;;;;;;1.20;0.60;;;6.60;99.90;;;;;;4966653;28;20027;-93
2021/01/12 03:26:28;;;;;;;0.60;0.60;;;6.50;99.90;;;;;;4965829;28;20547;-92
2021/01/12 03:28:54;;;;;;;0.50;0.50;;;6.50;99.90;;;;;;4960486;28;20081;-92
2021/01/12 03:31:19;;;;;;;0.88;0.73;;;6.50;99.90;;;;;;4960834;28;20027;-92
2021/01/12 03:33:45;;;;;;;1.30;1.00;;;6.50;99.90;;;;;;4960383;28;20464;-93
2021/01/12 03:36:11;;;;;;;0.70;0.70;;;6.60;99.90;;;;;;4960211;28;20031;-92
2021/01/12 03:38:36;;;;;;;2.42;1.00;;;6.50;99.90;;;;;;4960406;28;20030;-92
2021/01/12 03:41:02;;;;;;;2.28;1.35;;;6.50;99.90;;;;;;4960997;28;20023;-92
2021/01/12 03:43:28;;;;;;;1.73;1.38;;;6.50;99.90;;;;;;4963865;28;20035;-91
2021/01/12 03:45:54;;;;;;;2.50;1.33;;;6.50;99.90;;;;;;4979331;28;20019;-92
2021/01/12 03:48:20;;;;;;;1.88;1.13;;;6.50;99.90;;;;;;4983328;28;20136;-91
2021/01/12 03:50:46;;;;;;;3.03;1.20;;;6.50;99.90;;;;;;4984091;28;20094;-92
2021/01/12 03:53:15;;;;;;;7.10;1.40;;;6.50;99.90;;;;;;4983057;28;20042;-92
2021/01/12 03:55:41;;;;;;;4.10;1.50;;;6.60;99.90;;;;;;4968076;28;20048;-91
2021/01/12 03:58:06;;;;;;;3.10;1.73;;;6.50;99.90;;;;;;4965927;28;20117;-91
2021/01/12 04:00:32;;;;;;;2.58;1.88;;;6.50;99.90;;;;;;4968252;28;20065;-91
2021/01/12 04:02:58;;;;;;;2.00;1.33;;;6.50;99.90;;;;;;4963671;28;20046;-92
2021/01/12 04:05:23;;;;;;;0.90;0.90;;;6.50;99.90;;;;;;4959665;28;20039;-92
2021/01/12 04:07:49;;;;;;;1.48;1.02;;;6.50;99.90;;;;;;4959878;28;20027;-91
2021/01/12 04:10:15;;;;;;;1.83;1.10;;;6.50;99.90;;;;;;4959952;28;20022;-92
2021/01/12 04:12:40;;;;;;;1.17;0.90;;;6.40;99.90;;;;;;4959697;28;20034;-92
2021/01/12 04:15:07;;;;;;;0.52;0.40;;;6.30;99.90;;;;;;4959471;28;20027;-90
2021/01/12 04:17:32;;;;;;;1.92;0.70;;;6.20;99.90;;;;;;4959402;28;20034;-91
2021/01/12 04:19:58;;;;;;;0.40;0.40;;;6.00;99.90;;;;;;4959724;28;20041;-93
2021/01/12 04:22:24;;;;;;;0.50;0.50;;;5.90;99.90;;;;;;4963425;29;20042;-93
2021/01/12 04:24:50;;;;;;;1.10;0.55;;;5.70;99.90;;;;;;4960410;29;20126;-92
2021/01/12 04:27:16;;;;;;;0.80;0.80;;;5.60;99.90;;;;;;4956247;29;20035;-92
2021/01/12 04:29:41;;;;;;;0.77;0.77;;;5.50;99.90;;;;;;4955915;28;20507;-91
2021/01/12 04:32:07;;;;;;;0.73;0.60;;;5.40;99.90;;;;;;4939703;29;20031;-92
2021/01/12 04:34:32;;;;;;;1.60;1.08;;;5.20;99.90;;;;;;4955967;29;20036;-91
2021/01/12 04:36:58;;;;;;;1.60;1.00;;;5.10;99.90;;;;;;4955991;29;20031;-91
2021/01/12 04:39:24;;;;;;;1.45;1.20;;;5.00;99.90;;;;;;4955630;29;20035;-91
2021/01/12 04:41:49;;;;;;;1.13;1.00;;;5.00;99.90;;;;;;4955931;29;20142;-92
2021/01/12 04:44:15;;;;;;;1.40;1.17;;;4.90;99.90;;;;;;4955777;29;20038;-90
2021/01/12 04:46:41;;;;;;;1.30;0.90;;;4.80;99.90;;;;;;4939651;29;20031;-92
2021/01/12 04:49:06;;;;;;;1.38;1.10;;;4.80;99.90;;;;;;4955407;29;20077;-90
2021/01/12 04:51:34;;;;;;;2.13;1.40;;;4.70;99.90;;;;;;4955720;29;20118;-91
2021/01/12 04:54:00;;;;;;;1.45;0.90;;;4.60;99.90;;;;;;4955432;29;20166;-91
2021/01/12 04:56:25;;;;;;;1.77;1.35;;;4.60;99.90;;;;;;4955491;29;20062;-90
2021/01/12 04:58:52;;;;;;;1.70;1.17;;;4.50;99.90;;;;;;4955361;29;20032;-91
2021/01/12 05:01:23;;;;;;;1.45;1.05;;;4.50;99.90;;;;;;4955332;29;20033;-92
2021/01/12 05:03:56;;;;;;;1.55;1.13;;;4.40;99.90;;;;;;4955321;29;20393;-92
2021/01/12 05:06:24;;;;;;;1.42;1.13;;;4.40;99.90;;;;;;4954814;29;20489;-92
2021/01/12 05:08:57;;;;;;;1.52;1.27;;;4.30;99.90;;;;;;4954888;29;20114;-91
2021/01/12 05:11:32;;;;;;;1.75;1.10;;;4.30;99.90;;;;;;4938783;29;20613;-91
2021/01/12 05:14:12;;;;;;;2.72;1.02;;;4.20;99.90;;;;;;4954724;29;20041;-92
2021/01/12 05:16:48;;;;;;;2.65;1.10;;;4.20;99.90;;;;;;4954516;29;20333;-93
2021/01/12 05:19:26;;;;;;;1.77;1.25;;;4.20;99.90;;;;;;4954778;29;20485;-92
2021/01/12 05:21:54;;;;;;;1.73;1.10;;;4.10;99.90;;;;;;4955097;29;20043;-91
2021/01/12 05:24:21;;;;;;;1.17;1.00;;;4.10;99.90;;;;;;4958007;29;20130;-93
2021/01/12 05:26:48;;;;;;;2.45;1.30;;;4.10;99.90;;;;;;4961969;29;20023;-93
2021/01/12 05:29:14;;;;;;;1.77;1.20;;;4.00;99.90;;;;;;4955386;29;20042;-93
2021/01/12 05:31:45;;;;;;;2.00;1.10;;;4.00;99.90;;;;;;4955033;29;20456;-92
2021/01/12 05:34:11;;;;;;;1.40;1.00;;;4.00;99.90;;;;;;4955242;29;20038;-92
2021/01/12 05:36:51;;;;;;;1.30;0.95;;;4.00;99.90;;;;;;4954573;29;20408;-92
2021/01/12 05:39:25;;;;;;;1.08;0.88;;;4.00;99.90;;;;;;4938448;28;20027;-91
2021/01/12 05:41:54;;;;;;;1.73;0.90;;;4.00;99.90;;;;;;4938460;29;20039;-91
2021/01/12 05:44:22;;;;;;;1.58;0.80;;;3.90;99.90;;;;;;4938642;29;20035;-89
2021/01/12 05:46:53;;;;;;;1.35;1.00;;;3.90;99.90;;;;;;4954519;29;20031;-93
2021/01/12 05:49:20;;;;;;;0.68;0.55;;;4.00;99.90;;;;;;4954855;29;20035;-92
2021/01/12 05:51:51;;;;;;;1.35;0.73;;;3.90;99.90;;;;;;4955041;29;20057;-91
2021/01/12 05:54:36;;;;;;;1.10;0.77;;;4.00;99.90;;;;;;4954657;29;20020;-92
2021/01/12 05:57:07;;;;;;;1.48;1.05;;;3.90;99.90;;;;;;4954357;29;20059;-91
2021/01/12 05:59:34;;;;;;;1.85;1.20;;;3.90;99.90;;;;;;4938359;29;20067;-91
2021/01/12 06:02:08;;;;;;;1.20;0.82;;;3.90;99.90;;;;;;4954004;29;20094;-91
2021/01/12 06:04:35;;;;;;;1.73;1.00;;;3.90;99.90;;;;;;4954421;29;20063;-92
2021/01/12 06:07:00;;;;;;;1.65;1.05;;;3.90;99.90;;;;;;4960149;29;20027;-90
2021/01/12 06:09:26;;;;;;;1.80;1.10;;;3.80;99.90;;;;;;4957869;29;20029;-93
2021/01/12 06:11:54;;;;;;;3.22;1.27;;;3.80;99.90;;;;;;4954332;29;20489;-90
2021/01/12 06:14:24;;;;;;;2.90;1.63;;;3.80;99.90;;;;;;4938356;29;20098;-93
2021/01/12 06:16:53;;;;;;;1.65;1.15;;;3.80;99.90;;;;;;4953999;29;20082;-90
2021/01/12 06:19:23;;;;;;;0.85;0.82;;;3.80;99.90;;;;;;4954865;29;20543;-90
2021/01/12 06:21:54;;;;;;;2.23;1.33;;;3.80;99.90;;;;;;4954392;29;20031;-92
2021/01/12 06:24:35;;;;;;;1.65;1.00;;;3.80;99.90;;;;;;4954916;28;20046;-92
2021/01/12 06:27:11;;;;;;;4.55;1.40;;;3.70;99.90;;;;;;4957920;28;20054;-92
2021/01/12 06:29:42;;;;;;;2.00;1.25;;;3.70;99.90;;;;;;4957923;28;20031;-89
2021/01/12 06:32:08;;;;;;;3.03;1.63;;;3.70;99.90;;;;;;4957542;28;20031;-91
2021/01/12 06:34:34;;;;;;;2.17;1.30;;;3.60;99.90;;;;;;4957091;28;20034;-92
2021/01/12 06:37:04;;;;;;;2.05;1.17;;;3.60;99.90;;;;;;4957188;28;20114;-92
2021/01/12 06:39:40;;;;;;;1.98;1.13;;;3.60;99.90;;;;;;4957246;28;20039;-92
2021/01/12 06:42:07;;;;;;;2.22;1.40;;;3.70;99.90;;;;;;4957329;28;20453;-91
2021/01/12 06:44:34;;;;;;;1.63;1.02;;;3.70;99.90;;;;;;4957166;28;20031;-91
2021/01/12 06:47:03;;;;;;;1.92;1.20;;;3.70;99.90;;;;;;4957183;28;20022;-90
2021/01/12 06:49:29;;;;;;;2.28;1.25;;;3.60;99.90;;;;;;4957134;28;20027;-91
2021/01/12 06:52:05;;;;;;;1.92;1.10;;;3.60;99.90;;;;;;4959674;28;20030;-92
2021/01/12 06:54:37;;;;;;;3.05;1.80;;;3.60;99.90;;;;;;4971998;28;20036;-91
2021/01/12 06:57:06;;;;;;;3.88;1.45;;;3.60;99.90;;;;;;4984043;28;20033;-91
2021/01/12 06:59:36;;;;;;;1.88;1.15;;;3.50;99.90;;;;;;4979197;28;20099;-91
2021/01/12 07:02:19;;;;;;;2.45;1.55;;;3.50;99.90;;;;;;4978978;28;20035;-91
2021/01/12 07:05:09;;;;;;;2.10;1.30;;;3.50;99.90;;;;;;4971188;28;20042;-91
2021/01/12 07:07:40;;;;;;;2.45;1.50;;;3.50;99.90;;;;;;4963824;28;20035;-91
2021/01/12 07:10:08;;;;;;;2.00;1.30;;;3.40;99.90;;;;;;4963304;28;20167;-91
2021/01/12 07:12:35;;;;;;;2.25;1.30;;;3.40;99.90;;;;;;4962557;28;20094;-90
2021/01/12 07:15:16;;;;;;;2.10;1.20;;;3.40;99.90;;;;;;4962351;28;20027;-91
2021/01/12 07:17:45;;;;;;;2.60;1.40;;;3.40;99.90;;;;;;4959193;29;20027;-91
2021/01/12 07:20:17;;;;;;;1.38;1.20;;;3.40;99.90;;;;;;4942475;29;20054;-91
2021/01/12 07:22:56;;;;;;;1.45;0.90;;;3.40;99.90;;;;;;4967545;28;20035;-93
2021/01/12 07:25:33;;;;;;;2.70;1.20;;;3.40;99.90;;;;;;4981638;28;20042;-92
2021/01/12 07:28:06;;;;;;;1.85;1.02;;;3.30;99.90;;;;;;4973858;28;20055;-91
2021/01/12 07:30:39;;;;;;;2.10;0.80;;;3.30;99.90;;;;;;4966236;28;20026;-91
2021/01/12 07:33:17;;;;;;;3.88;0.80;;;3.30;99.90;;;;;;4966493;28;20028;-93
2021/01/12 07:35:44;;;;;;;1.88;1.27;;;3.30;99.90;;;;;;4964533;28;20612;-92
2021/01/12 07:38:15;;;;;;;3.85;0.90;;;3.30;99.90;;;;;;4955354;28;20031;-92
2021/01/12 07:40:41;;;;;;;1.58;0.80;;;3.30;99.90;;;;;;4964788;28;20035;-91
2021/01/12 07:43:14;;;;;;;2.50;0.82;;;3.30;99.90;;;;;;4965658;28;20031;-88
2021/01/12 07:45:39;;;;;;;2.20;0.85;;;3.30;99.90;;;;;;4966758;28;20026;-89
2021/01/12 07:48:06;;;;;;;4.32;0.80;;;3.20;99.90;;;;;;4976691;28;20140;-90
2021/01/12 07:50:32;;;;;;;4.28;0.70;;;3.20;99.90;;;;;;4965757;28;20023;-90
2021/01/12 07:52:58;;;;;;;2.95;0.57;;;3.20;99.90;;;;;;4958935;28;20031;-90
2021/01/12 07:55:25;;;;;;;2.15;0.70;;;3.10;99.90;;;;;;4972484;28;20022;-90
2021/01/12 07:57:52;;;;;;;3.25;1.80;;;3.10;99.90;;;;;;4972656;28;20114;-90
2021/01/12 08:00:19;;;;;;;4.40;1.42;;;3.10;99.90;;;;;;4972949;28;20023;-91
2021/01/12 08:02:54;;;;;;;3.78;0.77;;;3.00;99.90;;;;;;4971983;28;20037;-91
2021/01/12 08:05:27;;;;;;;2.80;0.68;;;3.00;99.90;;;;;;4965731;28;20188;-90
2021/01/12 08:08:09;;;;;;;3.47;0.75;;;3.00;99.90;;;;;;4973702;28;20026;-90
2021/01/12 08:10:40;;;;;;;9.77;0.90;;;2.90;99.90;;;;;;4970784;28;20034;-89
2021/01/12 08:13:10;;;;;;;8.68;0.93;;;2.90;99.90;;;;;;4959583;28;20438;-91
2021/01/12 08:15:37;;;;;;;10.48;1.13;;;2.80;99.90;;;;;;4966422;28;20026;-92
2021/01/12 08:18:11;;;;;;;3.25;0.80;;;2.80;99.90;;;;;;4966479;28;20278;-93
2021/01/12 08:20:38;;;;;;;6.82;0.70;;;2.80;99.90;;;;;;4973431;28;20381;-93
2021/01/12 08:23:04;;;;;;;9.60;0.82;;;2.80;99.90;;;;;;4974856;28;20039;-89
2021/01/12 08:25:33;;;;;;;6.05;0.70;;;2.80;99.90;;;;;;4973168;28;20063;-91
2021/01/12 08:28:00;;;;;;;8.20;0.80;;;2.70;99.90;;;;;;4971468;28;20041;-91
2021/01/12 08:30:31;;;;;;;5.47;0.98;;;2.80;99.90;;;;;;4971657;28;20027;-91
2021/01/12 08:33:00;;;;;;;3.17;0.73;;;2.80;99.90;;;;;;4967210;28;20043;-93
2021/01/12 08:35:29;;;;;;;4.20;0.90;;;2.80;99.90;;;;;;4960306;28;20034;-93
2021/01/12 08:37:58;;;;;;;4.40;0.90;;;2.80;99.90;;;;;;4976874;28;20036;-91
2021/01/12 08:40:28;;;;;;;5.47;1.40;;;2.70;99.90;;;;;;4968496;28;20054;-91
2021/01/12 08:42:54;;;;;;;11.48;1.70;;;2.70;99.90;;;;;;4964802;28;20039;-92
2021/01/12 08:45:20;;;;;;;15.13;3.05;;;2.70;99.90;;;;;;4957180;29;20026;-91
2021/01/12 08:47:45;;;;;;;12.35;2.78;;;2.70;99.90;;;;;;4949426;29;20374;-90
2021/01/12 08:50:12;;;;;;;21.08;4.85;;;2.70;99.90;;;;;;4968133;28;20116;-91
2021/01/12 08:52:44;;;;;;;17.92;4.47;;;2.60;99.90;;;;;;4971464;28;20026;-92
2021/01/12 08:55:17;;;;;;;15.55;4.53;;;2.60;99.90;;;;;;4987055;28;20077;-91
2021/01/12 08:58:00;;;;;;;11.93;3.35;;;2.60;99.90;;;;;;4962891;28;20031;-92
2021/01/12 09:00:35;;;;;;;8.88;2.25;;;2.60;99.90;;;;;;4961585;28;20031;-92
2021/01/12 09:03:01;;;;;;;11.00;4.03;;;2.50;99.90;;;;;;4973596;28;20043;-91
2021/01/12 09:05:30;;;;;;;15.55;3.75;;;2.50;99.90;;;;;;4970548;28;20050;-92
2021/01/12 09:08:02;;;;;;;10.65;3.08;;;2.40;99.90;;;;;;4970821;28;20077;-91
2021/01/12 09:10:28;;;;;;;12.70;2.25;;;2.40;99.90;;;;;;4965008;28;20031;-91
2021/01/12 09:12:55;;;;;;;7.95;2.13;;;2.40;99.90;;;;;;4957685;28;20022;-92
2021/01/12 09:15:45;;;;;;;2.67;0.93;;;2.40;99.90;;;;;;4964763;28;20028;-92
2021/01/12 09:18:17;;;;;;;5.57;1.02;;;2.30;99.90;;;;;;4950264;28;20493;-90
2021/01/12 09:20:42;;;;;;;9.32;1.10;;;2.30;99.90;;;;;;4957142;28;20031;-93
2021/01/12 09:23:13;;;;;;;7.15;1.15;;;2.30;99.90;;;;;;4954368;28;20035;-91
2021/01/12 09:26:09;;;;;;;6.93;1.45;;;2.30;99.90;;;;;;4957224;28;20075;-92
2021/01/12 09:28:36;;;;;;;11.35;3.67;;;2.40;99.90;;;;;;4953521;28;20031;-92
2021/01/12 09:31:17;;;;;;;7.75;1.63;;;2.40;99.90;;;;;;4961302;28;20082;-93
2021/01/12 09:33:49;;;;;;;;;;;2.50;99.90;;;;;;4968714;28;20031;-93
2021/01/12 09:36:18;;;;;;;3.03;1.60;;;2.60;99.90;;;;;;4965319;28;19914;-93
2021/01/12 09:38:46;;;;;;;9.55;2.15;;;2.80;99.90;;;;;;4957062;28;20748;-92
2021/01/12 09:41:13;;;;;;;10.38;3.75;;;2.90;99.90;;;;;;4948357;29;20608;-93
2021/01/12 09:43:40;;;;;;;15.32;4.93;;;3.10;99.90;;;;;;4944435;29;20036;-92
2021/01/12 09:46:07;;;;;;;6.55;3.38;;;3.30;99.90;;;;;;4946376;28;20125;-91
2021/01/12 09:48:32;;;;;;;6.75;2.20;;;3.60;99.90;;;;;;4955697;28;20069;-92
2021/01/12 09:50:58;;;;;;;10.90;2.72;;;3.80;99.90;;;;;;4957089;28;20048;-92
2021/01/12 09:53:25;;;;;;;8.60;2.90;;;4.00;99.90;;;;;;4954678;28;20029;-92
2021/01/12 09:55:51;;;;;;;11.45;3.03;;;4.20;99.90;;;;;;4954387;28;20503;-93
2021/01/12 09:58:16;;;;;;;6.57;1.42;;;4.50;99.90;;;;;;4954339;29;20485;-92
2021/01/12 10:00:42;;;;;;;6.40;1.33;;;4.80;99.90;;;;;;4942081;29;20081;-93
2021/01/12 10:03:08;;;;;;;4.97;1.13;;;5.10;99.90;;;;;;4946601;29;20046;-92
2021/01/12 10:05:40;;;;;;;6.63;0.90;;;5.30;99.90;;;;;;4943820;29;20070;-92
2021/01/12 10:08:07;;;;;;;5.78;0.82;;;5.60;99.90;;;;;;4949459;28;20031;-94
2021/01/12 10:10:34;;;;;;;4.97;0.98;;;5.90;99.90;;;;;;4966095;28;20024;-92
2021/01/12 10:13:00;;;;;;;3.10;1.90;;;6.20;99.90;;;;;;4963225;28;20030;-94
2021/01/12 10:15:26;;;;;;;9.10;2.08;;;6.50;99.90;;;;;;4957576;29;20147;-93
2021/01/12 10:17:52;;;;;;;8.85;2.70;;;6.80;99.90;;;;;;4941749;29;20113;-93
2021/01/12 10:20:18;;;;;;;8.82;2.95;;;7.00;99.90;;;;;;4957887;29;20031;-95
2021/01/12 10:22:43;;;;;;;5.65;1.65;;;7.10;99.90;;;;;;4959568;29;20560;-94
2021/01/12 10:25:10;;;;;;;12.07;2.20;;;7.30;99.90;;;;;;4972699;28;20050;-93
2021/01/12 10:27:38;;;;;;;4.00;1.20;;;7.50;99.90;;;;;;4960279;28;20030;-94
2021/01/12 10:30:08;;;;;;;5.40;1.48;;;7.60;99.90;;;;;;4955413;28;20022;-94
2021/01/12 10:32:34;;;;;;;3.55;1.52;;;7.90;99.90;;;;;;4969574;28;20484;-94
2021/01/12 10:35:00;;;;;;;5.18;1.48;;;8.10;99.90;;;;;;4953528;28;20030;-94
2021/01/12 10:37:27;;;;;;;5.30;0.98;;;8.40;99.90;;;;;;4954890;28;20294;-93
2021/01/12 10:39:54;;;;;;;6.90;1.20;;;8.60;99.90;;;;;;4955136;28;20063;-95
2021/01/12 10:42:20;;;;;;;5.85;0.98;;;8.80;99.90;;;;;;4961120;28;20033;-93
2021/01/12 10:44:46;;;;;;;5.05;1.33;;;9.00;99.90;;;;;;4972090;28;20085;-94
2021/01/12 10:47:12;;;;;;;1.77;0.75;;;9.10;99.90;;;;;;4953655;28;20026;-93
2021/01/12 10:49:38;;;;;;;7.72;1.08;;;9.20;99.90;;;;;;4955305;28;20034;-94
2021/01/12 10:52:06;;;;;;;10.13;2.67;;;9.30;99.40;;;;;;4967988;28;20540;-94
2021/01/12 10:54:33;;;;;;;6.93;1.83;;;9.50;98.80;;;;;;4952780;28;20043;-94
2021/01/12 10:56:58;;;;;;;4.78;1.00;;;9.80;97.60;;;;;;4954122;28;20110;-94
2021/01/12 10:59:26;;;;;;;2.20;0.63;;;9.80;96.20;;;;;;4970433;28;20101;-94
2021/01/12 11:01:57;;;;;;;3.78;0.73;;;9.80;95.30;;;;;;4943467;28;20046;-94
2021/01/12 11:04:24;;;;;;;4.43;0.82;;;9.90;95.00;;;;;;4953348;28;20101;-94
2021/01/12 11:06:51;;;;;;;1.92;0.55;;;10.00;94.20;;;;;;4954807;28;20042;-94
2021/01/12 11:09:21;;;;;;;10.35;0.80;;;10.20;93.40;;;;;;4945258;28;21628;-94
2021/01/12 11:11:48;;;;;;;3.25;0.45;;;10.20;92.70;;;;;;4948524;28;20033;-95
2021/01/12 11:14:19;;;;;;;4.45;0.90;;;10.40;91.90;;;;;;4955646;28;20103;-95
2021/01/12 11:16:45;;;;;;;3.28;0.65;;;10.50;91.10;;;;;;4955481;28;20027;-94
2021/01/12 11:19:12;;;;;;;4.93;0.60;;;10.70;91.20;;;;;;4955625;28;20027;-95
2021/01/12 11:21:45;;;;;;;3.95;0.77;;;10.70;90.10;;;;;;4955928;28;20027;-94
2021/01/12 11:24:13;;;;;;;1.90;0.80;;;10.80;88.90;;;;;;4912067;28;1287674;-95
2021/01/12 11:26:40;;;;;;;3.03;0.75;;;10.90;88.30;;;;;;4957729;28;20062;-94
2021/01/12 11:29:07;;;;;;;4.65;1.50;;;11.10;87.30;;;;;;4953248;29;20501;-96
2021/01/12 11:31:33;;;;;;;2.60;1.08;;;11.20;86.30;;;;;;4950897;29;20035;-95
2021/01/12 11:34:00;;;;;;;4.68;1.67;;;11.30;85.00;;;;;;4951734;29;20118;-94
2021/01/12 11:36:47;;;;;;;1.92;0.68;;;11.30;84.30;;;;;;4947555;28;20033;-94
2021/01/12 11:39:16;;;;;;;5.63;0.82;;;11.50;83.00;;;;;;4959249;28;20026;-95
2021/01/12 11:41:50;;;;;;;4.13;0.93;;;11.50;82.30;;;;;;4977665;28;20118;-96
2021/01/12 11:44:17;;;;;;;3.28;0.63;;;11.60;81.20;;;;;;4961495;28;20089;-94
2021/01/12 11:46:44;;;;;;;5.75;0.98;;;11.60;80.40;;;;;;4963165;28;20054;-95
2021/01/12 11:49:11;;;;;;;4.50;1.08;;;11.60;78.90;;;;;;4960369;28;20488;-94
2021/01/12 11:51:38;;;;;;;1.27;0.60;;;11.70;78.20;;;;;;4960905;28;20031;-96
2021/01/12 11:54:05;;;;;;;4.40;1.27;;;11.70;76.90;;;;;;4960532;28;20038;-94
2021/01/12 11:56:31;;;;;;;4.22;0.98;;;11.70;76.50;;;;;;4960435;28;20091;-96
2021/01/12 11:58:57;;;;;;;4.22;1.17;;;11.90;76.40;;;;;;4960891;28;20066;-94
2021/01/12 12:01:22;;;;;;;6.03;1.33;;;12.00;75.20;;;;;;4959772;28;20026;-95
2021/01/12 12:03:48;;;;;;;6.40;1.10;;;12.10;74.90;;;;;;4960683;28;20034;-96
2021/01/12 12:06:14;;;;;;;3.83;0.85;;;12.20;74.10;;;;;;4976722;28;20041;-94
2021/01/12 12:08:40;;;;;;;3.58;0.88;;;12.30;73.00;;;;;;4960718;28;20109;-96
2021/01/12 12:11:06;;;;;;;4.65;0.95;;;12.30;72.60;;;;;;4961136;28;20398;-96
2021/01/12 12:13:39;;;;;;;5.35;1.17;;;12.30;72.20;;;;;;4960655;28;20109;-94
2021/01/12 12:16:06;;;;;;;3.25;0.77;;;12.30;71.50;;;;;;4960706;28;20023;-95
2021/01/12 12:18:32;;;;;;;4.72;0.90;;;12.40;71.50;;;;;;4961300;28;20026;-94
2021/01/12 12:20:58;;;;;;;5.95;1.20;;;12.60;71.30;;;;;;4961244;28;20037;-95
2021/01/12 12:23:24;;;;;;;4.47;1.30;;;12.80;70.90;;;;;;4961026;28;20055;-95
2021/01/12 12:25:49;;;;;;;4.50;1.20;;;12.80;69.80;;;;;;4959434;28;20043;-94
2021/01/12 12:28:15;;;;;;;3.10;0.90;;;12.90;69.30;;;;;;4957537;28;20378;-95
2021/01/12 12:30:40;;;;;;;7.38;1.30;;;13.00;68.80;;;;;;4955161;28;20465;-95
2021/01/12 12:33:06;;;;;;;6.40;0.93;;;13.00;68.40;;;;;;4956148;28;20093;-94
2021/01/12 12:35:32;;;;;;;3.88;1.08;;;13.10;68.10;;;;;;4965102;28;20026;-93
2021/01/12 12:37:58;;;;;;;6.70;1.42;;;13.30;68.10;;;;;;4964397;28;20085;-96
2021/01/12 12:40:24;;;;;;;8.55;1.20;;;13.50;67.90;;;;;;4962793;28;20031;-95
2021/01/12 12:42:49;;;;;;;3.47;1.15;;;13.70;66.80;;;;;;4968692;28;20123;-94
2021/01/12 12:45:15;;;;;;;7.05;1.25;;;13.70;66.20;;;;;;4956503;28;20015;-94
2021/01/12 12:47:41;;;;;;;4.28;1.05;;;13.70;66.30;;;;;;4960919;28;20038;-95
2021/01/12 12:50:08;;;;;;;6.80;1.10;;;14.00;65.70;;;;;;4982311;28;20027;-95
2021/01/12 12:52:34;;;;;;;3.15;1.10;;;14.10;65.30;;;;;;4960950;29;20114;-95
2021/01/12 12:55:00;;;;;;;4.03;1.20;;;14.30;64.90;;;;;;4958157;29;20069;-93
2021/01/12 12:57:25;;;;;;;6.82;1.08;;;14.50;64.20;;;;;;4948881;29;20035;-94
2021/01/12 12:59:51;;;;;;;4.10;1.15;;;14.70;63.50;;;;;;4942062;29;20090;-94